Tallevast, FL

4:36 PM EDT on September 18, 2014 (GMT -0400)
Sarasota-bradenton | Change Station
CLOSE
Current Station
Airport
Location: Sarasota,
Elevation: 30 ft
Nearby Weather Stations

Elev 30 ft 27.40 °N, 82.56 °W | Updated 43 minutes ago

Clear
Clear
87 °F
Feels Like 95 °F
N
10
Wind Variable Wind from West

Today
High -- | Low -- °F
--% Chance of Precip.
Yesterday
High -- | Low -- °F
Precip. -- in
7:16 AM 7:31 PM
Waning Crescent, 24% visible
Pressure 29.86 in
Visibility 10.0 miles
Clouds Few 3500 ft
Heat Index 95 °F
Dew Point 74 °F
Humidity 65%
Rainfall 0.00 in
Snow Depth Not available.
UV 8 out of 12
Pollen 6.70 out of 12
Air Quality Not available.
Flu Activity Not available.
METAR KSRQ 181953Z 27009KT 10SM FEW035 31/23 A2986 RMK AO2 SLP112 T03060233

More Conditions Fewer Conditions

Pressure 29.86 in
Visibility 10.0 miles
Clouds Few 3500 ft
Heat Index 95 °F
Dew Point 74 °F
Humidity 65%
Rainfall 0.00 in
Snow Depth Not available.
UV 8 out of 12
Pollen 6.70 out of 12
Air Quality Not available.
Flu Activity Not available.
METAR KSRQ 181953Z 27009KT 10SM FEW035 31/23 A2986 RMK AO2 SLP112 T03060233

More Conditions Fewer Conditions

10-Day Weather Forecast

Almanac

Astronomy

Sep. 18, 2014 Rise Set
Actual Time 7:16 AM EDT 7:31 PM EDT
Civil Twilight 6:53 AM EDT 7:54 PM EDT
Nautical Twilight 6:26 AM EDT 8:21 PM EDT
Astronomical Twilight 5:58 AM EDT 8:49 PM EDT
Moon 2:28 AM EDT 4:02 PM EDT
Length of Visible Light 13h 01m
Length of Day
12h 14m
Tomorrow will be 1m 37s shorter.
Waning Crescent, 24% of the Moon is Illuminated
Today
Waning Crescent
Sep 24
New
Oct 1
First Quarter
Oct 8
Full
Oct 15
Last Quarter

Today's Extremes

State Highs State Lows

Community

WunderPhotos

Upload Photos

1,754,430 photos uploaded!

WunderBlogs® & News

By Dr. Jeff Masters
Director of Meteorology, Weather Underground
By Kari Strenfel
Meteorologist, Weather Underground
By Christopher C. Burt
Weather Historian, Weather Underground
September 18, 2014
September 18, 2014
September 18, 2014

Nearby

Snow Depth

Station Depth Elevation
No new snow has been reported.

Earthquake Activity

City Distance Mag. Time & Date
No recent earthquake activity has been reported nearby.
Minimum magnitude displayed is 2.5.

Coastal Water Temperatures

Place Temperature
Port Manatee, FL 86.0 °F
St Petersburg, FL 87.1 °F
Old Port Tampa, FL 86.0 °F

Nearby Weather Stations